الصفحة الرئيسية
METAR-TAF:

METAR-TAF

مطار :

Nosy Be, مدغشقر

دائرة عرض: 13-19S, خط طول: 048-19E, ارتفاع: 10 متر

مراقبة الطقس الحالي

تاريخ ووقت الإصدار 4ساعات و 8 دقيقة قبل الساعة 15:00UTC
رياح هادئة
درجة الحرارة 26°درجة مئوية
ضغط 1013 hPa
الرؤية 10 كم أو أكثر
غيوم قليلة على ارتفاع 2000 قدم

METAR: FMNN 211500Z 00000KT 9999 FEW020 26/// Q1013

زمن: 22:08 (19:08 UTC)

توقعات

تاريخ ووقت الإصدار 2ساعات و 8 دقيقة قبل الساعة 17:00UTC
التوقعات صالحة من21 الساعة 18 UTC إلى 22 الساعة 18 UTC
ريح عقدة من الشمال
الرؤية 10 كم أو أكثر
غيوم متفرقة على ارتفاع 2000 قدم
نظرية الاحتمالات 30% :
مؤقت
من 22 الساعة 00 UTC إلى 22 الساعة 03 UTC
الرؤية: 4500 متر
زخات من المطر
أصبح
من 22 الساعة 10 UTC إلى 22 الساعة 12 UTC
ريح 10 عقدة من الغرب

TAF: FMNN 211700Z 2118/2218 00000KT 9999 SCT020 PROB30 TEMPO 2200/2203 4500 SHRA BECMG 2210/2212 28010KT

أرصاد الطقس والتوقعات من أكثر من 4000 مطار (تقارير الطقس للمطار METAR والتنبؤ بالطقس بالمطارTAF).

المحطات المتاحة هي النقط الصفراء والحمراء على الخريطة.

حرك المؤشر فوق النقطة لمعرفة اسم المحطة.

ثم انقر لمعرفة أرصاد وتوقعات الطقس.

لتغيير الخارطة: اضغط على الأزرار الخضراء مع رمز الصليب الأسود للتكبير. على الزر الأخضر مع شرطة للتصغير، أو على الأسهم الخضراء للخرائط المجاورة.


METAR-TAF: